Main page
METAR-TAF:

METAR-TAF

Airports :

San Sebastián Airport

San Sebastián, Spain

latitude: 43-21N, longitude: 001-48W, elevation: 5 m

Current weather observation

The report was made 22 minutes ago, at 06:00 UTC
Wind 1 kt from variable directions
Temperature 10°C
Humidity 100%
Pressure 1029 hPa
Visibility: 9000 m
Few clouds at a height of 1100 ft

METAR: LESO 230600Z VRB01KT 9000 FEW011 10/10 Q1029

Time: 08:22 (06:22 UTC)

Forecast

The report was made 1 hour and 22 minutes ago, at 05:00 UTC
Forecast valid from 23 at 06 UTC to 24 at 06 UTC
Wind 5 kt from variable directions
Visibility 10 km or more
Scattered clouds at a height of 1500 ft
Temporary
from 23 at 11 UTC to 23 at 18 UTC
Wind 10 kt from the North

TAF: LESO 230500Z 2306/2406 VRB05KT 9999 SCT015 TX18/2314Z TN11/2406Z TEMPO 2311/2318 36010KT

Weather observations and forecasts of more than 4000 airports (METAR and TAF reports).

The available stations are represented by yellow and red dots on the map.

Hover mouse over dot to see the name of the station.

Then click to see weather observations and forecasts.

To change the map : click on the green buttons with a black cross to zoom in, on the green button with a dash to zoom out, or on the green arrows for adjacent maps.


METAR-TAF: